createdAt,value
2019-04-27T00:01:30.087Z,16.20
2019-04-27T00:04:35.962Z,17.53
2019-04-27T00:07:27.081Z,18.33
2019-04-27T00:10:05.698Z,20.27
2019-04-27T00:12:37.965Z,18.83
2019-04-27T00:15:13.084Z,20.67
2019-04-27T00:18:03.749Z,22.13
2019-04-27T00:20:54.579Z,21.90
2019-04-27T00:23:26.909Z,22.80
2019-04-27T00:25:59.014Z,25.17
2019-04-27T00:28:33.209Z,26.27
2019-04-27T00:31:05.218Z,29.73
2019-04-27T00:33:37.088Z,30.20
2019-04-27T00:36:18.767Z,31.27
2019-04-27T00:38:59.418Z,34.10
2019-04-27T00:41:33.971Z,29.50
2019-04-27T00:44:06.273Z,29.20
2019-04-27T00:46:38.159Z,32.70
2019-04-27T00:49:10.033Z,29.60
2019-04-27T00:51:43.361Z,30.67
2019-04-27T00:54:15.378Z,30.83
2019-04-27T00:56:56.091Z,30.60
2019-04-27T00:59:55.917Z,28.90
2019-04-27T01:02:38.864Z,28.87
2019-04-27T01:05:17.854Z,28.50
2019-04-27T01:07:49.923Z,28.43
2019-04-27T01:10:23.350Z,28.00
2019-04-27T01:12:55.315Z,27.37
2019-04-27T01:15:28.525Z,28.60
2019-04-27T01:18:11.690Z,27.43
2019-04-27T01:20:34.832Z,24.30
2019-04-27T01:23:06.723Z,24.40
2019-04-27T01:25:56.802Z,24.73
2019-04-27T01:28:33.013Z,25.17
2019-04-27T01:31:09.227Z,25.10
2019-04-27T01:33:41.235Z,24.50
2019-04-27T01:36:13.088Z,23.83
2019-04-27T01:38:45.077Z,23.60
2019-04-27T01:41:19.026Z,23.13
2019-04-27T01:43:50.692Z,26.00
2019-04-27T01:46:23.761Z,20.07
2019-04-27T01:48:55.593Z,22.47
2019-04-27T01:51:29.325Z,22.00
2019-04-27T01:54:00.985Z,23.93
2019-04-27T01:56:32.869Z,21.47
2019-04-27T01:59:04.860Z,23.30
2019-04-27T02:02:13.517Z,24.83
2019-04-27T02:05:02.880Z,22.10
2019-04-27T02:07:35.527Z,22.13
2019-04-27T02:10:08.982Z,20.83
2019-04-27T02:12:51.130Z,20.17
2019-04-27T02:15:22.961Z,20.33
2019-04-27T02:17:55.750Z,20.27
2019-04-27T02:20:28.265Z,19.60
2019-04-27T02:23:01.126Z,19.63
2019-04-27T02:25:33.072Z,19.83
2019-04-27T02:28:12.850Z,19.03
2019-04-27T02:31:02.204Z,18.87
2019-04-27T02:33:43.571Z,20.23
2019-04-27T02:36:15.486Z,20.07
2019-04-27T02:38:49.183Z,19.90
2019-04-27T02:41:21.259Z,18.50
2019-04-27T02:44:16.387Z,18.13
2019-04-27T02:46:50.184Z,18.67
2019-04-27T02:49:21.767Z,17.20
2019-04-27T02:52:03.271Z,17.50
2019-04-27T02:54:36.153Z,17.30
2019-04-27T02:57:10.103Z,17.33
2019-04-27T02:59:41.615Z,15.93
2019-04-27T03:02:35.359Z,16.13
2019-04-27T03:05:12.791Z,15.67
2019-04-27T03:07:42.870Z,15.13
2019-04-27T03:10:14.914Z,16.07
2019-04-27T03:12:51.375Z,14.40
2019-04-27T03:15:34.298Z,14.63
2019-04-27T03:18:16.729Z,14.73
2019-04-27T03:21:00.192Z,13.57
2019-04-27T03:23:31.186Z,12.67
2019-04-27T03:26:21.911Z,15.77
2019-04-27T03:28:54.455Z,15.27
2019-04-27T03:31:26.249Z,19.30
2019-04-27T03:34:03.836Z,16.10
2019-04-27T03:36:32.026Z,13.33
2019-04-27T03:39:05.174Z,11.93
2019-04-27T03:41:37.325Z,12.53
2019-04-27T03:44:09.391Z,10.93
2019-04-27T03:46:42.398Z,11.27
2019-04-27T03:49:27.770Z,12.30
2019-04-27T03:52:03.098Z,12.03
2019-04-27T03:54:42.755Z,11.70
2019-04-27T03:57:23.619Z,13.13
2019-04-27T04:00:00.112Z,11.17
2019-04-27T04:02:32.126Z,12.40
2019-04-27T04:05:04.095Z,11.57
2019-04-27T04:07:35.952Z,11.47
2019-04-27T04:10:10.361Z,13.03
2019-04-27T04:12:49.866Z,11.87
2019-04-27T04:15:42.738Z,11.20
2019-04-27T04:18:14.600Z,11.97
2019-04-27T04:20:46.797Z,12.17
2019-04-27T04:23:20.375Z,11.27
2019-04-27T04:25:54.123Z,12.00
2019-04-27T04:28:25.986Z,12.23
2019-04-27T04:31:00.281Z,11.03
2019-04-27T04:33:31.386Z,11.40
2019-04-27T04:36:03.535Z,11.07
2019-04-27T04:38:35.394Z,10.07
2019-04-27T04:41:10.013Z,10.30
2019-04-27T04:44:00.769Z,10.63
2019-04-27T04:47:00.775Z,10.47
2019-04-27T04:49:32.644Z,9.37
2019-04-27T04:52:04.457Z,10.60
2019-04-27T04:54:36.309Z,9.87
2019-04-27T04:57:09.325Z,11.17
2019-04-27T04:59:43.884Z,10.50
2019-04-27T05:02:15.922Z,10.30
2019-04-27T05:04:49.184Z,10.27
2019-04-27T05:07:21.105Z,9.47
2019-04-27T05:09:52.899Z,8.90
2019-04-27T05:12:24.863Z,9.83
2019-04-27T05:14:58.941Z,8.80
2019-04-27T05:17:30.762Z,8.67
2019-04-27T05:20:05.328Z,8.23
2019-04-27T05:22:37.194Z,9.00
2019-04-27T05:25:09.333Z,8.77
2019-04-27T05:27:42.781Z,8.67
2019-04-27T05:30:14.641Z,7.87
2019-04-27T05:32:46.516Z,8.77
2019-04-27T05:35:19.426Z,7.90
2019-04-27T05:37:51.273Z,6.67
2019-04-27T05:40:23.045Z,4.97
2019-04-27T05:42:56.184Z,6.00
2019-04-27T05:46:39.897Z,5.43
2019-04-27T05:49:17.022Z,6.07
2019-04-27T05:51:50.118Z,4.73
2019-04-27T05:54:22.054Z,5.70
2019-04-27T05:56:53.917Z,5.70
2019-04-27T05:59:25.774Z,5.70
2019-04-27T06:01:59.267Z,5.53
2019-04-27T06:04:32.193Z,5.63
2019-04-27T06:07:04.043Z,5.50
2019-04-27T06:09:35.887Z,6.13
2019-04-27T06:12:08.977Z,7.00
2019-04-27T06:14:40.851Z,6.33
2019-04-27T06:17:12.630Z,8.80
2019-04-27T06:19:44.422Z,6.53
2019-04-27T06:22:16.314Z,7.00
2019-04-27T06:24:52.753Z,5.93
2019-04-27T06:27:21.724Z,6.00
2019-04-27T06:29:53.937Z,6.10
2019-04-27T06:32:25.807Z,6.03
2019-04-27T06:34:58.956Z,5.83
2019-04-27T06:37:31.039Z,5.83
2019-04-27T06:40:02.837Z,5.50
2019-04-27T06:42:34.720Z,6.23
2019-04-27T06:45:06.891Z,6.63
2019-04-27T06:47:39.708Z,6.60
2019-04-27T06:50:12.426Z,7.93
2019-04-27T06:52:44.293Z,6.33
2019-04-27T06:55:16.400Z,6.47
2019-04-27T06:57:49.075Z,6.13
2019-04-27T07:00:21.912Z,5.60
2019-04-27T07:02:55.304Z,7.23
2019-04-27T07:05:28.900Z,5.43
2019-04-27T07:08:00.896Z,5.27
2019-04-27T07:10:32.770Z,4.87
2019-04-27T07:13:04.628Z,6.03
2019-04-27T07:15:36.532Z,5.30
2019-04-27T07:18:09.700Z,5.40
2019-04-27T07:20:41.669Z,5.93
2019-04-27T07:23:13.580Z,6.90
2019-04-27T07:25:45.383Z,7.50
2019-04-27T07:28:19.042Z,6.47
2019-04-27T07:30:50.927Z,7.83
2019-04-27T07:33:22.794Z,6.80
2019-04-27T07:35:54.624Z,6.50
2019-04-27T07:38:26.490Z,7.03
2019-04-27T07:40:58.747Z,7.17
2019-04-27T07:43:54.487Z,7.43
2019-04-27T07:46:29.852Z,6.73
2019-04-27T07:48:59.973Z,6.70
2019-04-27T07:51:34.294Z,6.87
2019-04-27T07:54:05.844Z,7.03
2019-04-27T07:56:38.991Z,6.47
2019-04-27T07:59:10.922Z,7.23
2019-04-27T08:01:42.774Z,6.80
2019-04-27T08:04:14.637Z,7.17
2019-04-27T08:06:46.761Z,6.97
2019-04-27T08:09:19.083Z,7.43
2019-04-27T08:11:50.997Z,7.13
2019-04-27T08:14:23.007Z,7.90
2019-04-27T08:16:54.909Z,6.77
2019-04-27T08:19:26.796Z,7.67
2019-04-27T08:21:59.588Z,7.17
2019-04-27T08:24:33.163Z,7.20
2019-04-27T08:27:26.954Z,7.30
2019-04-27T08:30:23.581Z,8.03
2019-04-27T08:32:55.509Z,6.60
2019-04-27T08:35:29.464Z,6.40
2019-04-27T08:38:00.905Z,6.37
2019-04-27T08:40:32.777Z,6.83
2019-04-27T08:43:04.659Z,6.80
2019-04-27T08:45:36.517Z,7.13
2019-04-27T08:48:09.332Z,7.17
2019-04-27T08:50:42.122Z,6.57
2019-04-27T08:53:14.256Z,6.43
2019-04-27T08:55:46.393Z,6.67
2019-04-27T08:58:21.089Z,7.30
2019-04-27T09:00:52.285Z,6.70
2019-04-27T09:03:24.208Z,6.43
2019-04-27T09:05:56.110Z,10.73
2019-04-27T09:08:42.816Z,7.23
2019-04-27T09:11:39.680Z,8.13
2019-04-27T09:14:34.177Z,6.63
2019-04-27T09:17:19.909Z,7.57
2019-04-27T09:20:10.720Z,7.60
2019-04-27T09:22:42.666Z,7.30
2019-04-27T09:25:15.102Z,7.67
2019-04-27T09:27:49.269Z,15.00
2019-04-27T09:30:21.401Z,9.27
2019-04-27T09:32:53.284Z,16.77
2019-04-27T09:35:26.450Z,9.07
2019-04-27T09:37:59.345Z,12.43
2019-04-27T09:40:31.287Z,10.30
2019-04-27T09:43:05.023Z,10.70
2019-04-27T09:45:37.278Z,12.30
2019-04-27T09:48:09.458Z,11.10
2019-04-27T09:50:42.492Z,9.30
2019-04-27T09:53:17.150Z,12.53
2019-04-27T09:55:53.108Z,11.57
2019-04-27T09:58:25.936Z,11.57
2019-04-27T10:00:59.123Z,9.67
2019-04-27T10:03:31.094Z,11.67
2019-04-27T10:06:03.107Z,10.23
2019-04-27T10:08:36.666Z,10.20
2019-04-27T10:11:09.142Z,12.60
2019-04-27T10:13:41.157Z,12.53
2019-04-27T10:16:13.074Z,13.77
2019-04-27T10:18:45.868Z,13.60
2019-04-27T10:21:18.148Z,12.27
2019-04-27T10:23:50.791Z,10.40
2019-04-27T10:26:22.806Z,11.27
2019-04-27T10:28:56.108Z,8.50
2019-04-27T10:31:30.288Z,20.33
2019-04-27T10:34:05.894Z,9.37
2019-04-27T10:36:40.374Z,7.77
2019-04-27T10:39:14.109Z,8.17
2019-04-27T10:41:46.580Z,10.77
2019-04-27T10:44:19.464Z,6.73
2019-04-27T10:46:52.318Z,7.60
2019-04-27T10:49:24.512Z,7.40
2019-04-27T10:51:56.659Z,7.77
2019-04-27T10:54:29.103Z,7.00
2019-04-27T10:57:01.158Z,7.13
2019-04-27T10:59:35.907Z,8.13
2019-04-27T11:02:07.901Z,6.77
2019-04-27T11:04:53.026Z,8.30
2019-04-27T11:07:28.429Z,7.23
2019-04-27T11:10:00.447Z,5.27
2019-04-27T11:12:32.314Z,5.23
2019-04-27T11:15:09.611Z,7.00
2019-04-27T11:17:41.482Z,8.60
2019-04-27T11:20:13.657Z,6.17
2019-04-27T11:22:46.501Z,6.50
2019-04-27T11:25:18.455Z,5.10
2019-04-27T11:27:50.312Z,4.70
2019-04-27T11:30:22.375Z,5.40
2019-04-27T11:32:56.765Z,5.03
2019-04-27T11:35:39.293Z,5.33
2019-04-27T11:38:11.100Z,5.40
2019-04-27T11:40:42.903Z,5.10
2019-04-27T11:43:16.079Z,5.83
2019-04-27T11:45:48.459Z,14.03
2019-04-27T11:48:21.371Z,5.37
2019-04-27T11:50:55.929Z,5.23
2019-04-27T11:53:27.940Z,5.10
2019-04-27T11:55:59.832Z,4.97
2019-04-27T11:58:35.031Z,7.50
2019-04-27T12:01:08.476Z,10.27
2019-04-27T12:03:40.397Z,6.97
2019-04-27T12:06:12.290Z,8.00
2019-04-27T12:08:45.767Z,4.47
2019-04-27T12:11:18.173Z,4.30
2019-04-27T12:13:50.036Z,4.90
2019-04-27T12:16:22.075Z,4.50
2019-04-27T12:18:54.079Z,4.87
2019-04-27T12:21:25.965Z,4.40
2019-04-27T12:23:57.822Z,4.13
2019-04-27T12:26:55.789Z,3.60
2019-04-27T12:29:47.965Z,5.73
2019-04-27T12:32:19.954Z,5.87
2019-04-27T12:34:52.693Z,6.67
2019-04-27T12:37:26.691Z,5.73
2019-04-27T12:39:58.626Z,4.20
2019-04-27T12:42:31.489Z,4.03
2019-04-27T12:45:04.029Z,5.20
2019-04-27T12:47:36.572Z,4.30
2019-04-27T12:50:09.753Z,5.10
2019-04-27T12:52:43.311Z,3.40
2019-04-27T12:55:32.344Z,4.07
2019-04-27T12:58:26.627Z,3.90
2019-04-27T13:01:00.180Z,3.20
2019-04-27T13:03:32.212Z,2.97
2019-04-27T13:06:04.071Z,2.83
2019-04-27T13:08:35.941Z,11.37
2019-04-27T13:11:07.987Z,2.60
2019-04-27T13:13:39.846Z,2.80
2019-04-27T13:16:11.705Z,3.17
2019-04-27T13:18:43.991Z,3.17
2019-04-27T13:21:18.022Z,2.30
2019-04-27T13:24:01.251Z,2.50
2019-04-27T13:26:23.305Z,2.60
2019-04-27T13:28:56.120Z,2.50
2019-04-27T13:31:28.146Z,2.17
2019-04-27T13:34:02.639Z,4.30
2019-04-27T13:36:34.437Z,3.73
2019-04-27T13:39:08.466Z,3.33
2019-04-27T13:41:41.909Z,2.70
2019-04-27T13:44:16.024Z,3.17
2019-04-27T13:47:06.292Z,3.77
2019-04-27T13:50:00.165Z,2.47
2019-04-27T13:52:33.026Z,2.60
2019-04-27T13:55:05.863Z,2.50
2019-04-27T13:57:49.803Z,3.40
2019-04-27T14:00:12.833Z,2.87
2019-04-27T14:02:45.087Z,3.57
2019-04-27T14:05:16.952Z,7.00
2019-04-27T14:07:49.424Z,5.77
2019-04-27T14:10:21.515Z,4.00
2019-04-27T14:12:53.385Z,5.40
2019-04-27T14:15:25.174Z,3.27
2019-04-27T14:17:59.068Z,3.53
2019-04-27T14:20:32.247Z,5.93
2019-04-27T14:23:16.410Z,3.73
2019-04-27T14:25:48.483Z,3.17
2019-04-27T14:28:22.095Z,4.67
2019-04-27T14:30:53.903Z,3.90
2019-04-27T14:33:25.755Z,3.17
2019-04-27T14:35:59.389Z,3.90
2019-04-27T14:38:31.763Z,2.83
2019-04-27T14:41:04.080Z,4.23
2019-04-27T14:43:35.943Z,8.17
2019-04-27T14:46:08.233Z,5.37
2019-04-27T14:48:40.228Z,2.77
2019-04-27T14:51:12.031Z,3.47
2019-04-27T14:53:43.805Z,2.87
2019-04-27T14:56:18.093Z,3.93
2019-04-27T14:58:49.652Z,2.73
2019-04-27T15:01:22.111Z,6.50
2019-04-27T15:03:53.972Z,22.73
2019-04-27T15:06:25.867Z,2.87
2019-04-27T15:08:57.650Z,2.67
2019-04-27T15:11:31.539Z,3.03
2019-04-27T15:14:04.408Z,3.87
2019-04-27T15:16:37.799Z,4.47
2019-04-27T15:19:17.848Z,5.53
2019-04-27T15:21:57.788Z,2.70
2019-04-27T15:24:23.846Z,3.33
2019-04-27T15:27:00.802Z,2.80
2019-04-27T15:29:31.445Z,2.20
2019-04-27T15:32:10.948Z,2.40
2019-04-27T15:35:05.025Z,4.00
2019-04-27T15:37:44.664Z,2.50
2019-04-27T15:40:35.385Z,3.43
2019-04-27T15:43:15.492Z,2.60
2019-04-27T15:45:48.693Z,3.00
2019-04-27T15:48:25.010Z,2.37
2019-04-27T15:50:54.781Z,2.87
2019-04-27T15:53:28.342Z,9.03
2019-04-27T15:56:02.078Z,4.67
2019-04-27T15:58:34.036Z,2.30
2019-04-27T16:01:09.873Z,2.50
2019-04-27T16:03:40.794Z,3.00
2019-04-27T16:06:12.851Z,9.57
2019-04-27T16:08:46.807Z,10.23
2019-04-27T16:11:19.828Z,84.30
2019-04-27T16:13:52.062Z,8.10
2019-04-27T16:16:24.453Z,7.17
2019-04-27T16:18:59.344Z,7.73
2019-04-27T16:21:31.723Z,40.40
2019-04-27T16:24:03.681Z,13.43
2019-04-27T16:26:38.614Z,18.90
2019-04-27T16:29:10.689Z,26.30
2019-04-27T16:31:42.627Z,72.37
2019-04-27T16:34:15.135Z,5.77
2019-04-27T16:36:47.720Z,5.70
2019-04-27T16:39:20.386Z,9.63
2019-04-27T16:41:52.692Z,6.43
2019-04-27T16:44:24.573Z,5.43
2019-04-27T16:46:58.243Z,2.10
2019-04-27T16:49:30.218Z,3.33
2019-04-27T16:52:02.099Z,10.53
2019-04-27T16:54:35.127Z,9.17
2019-04-27T16:57:07.971Z,10.47
2019-04-27T16:59:45.732Z,20.23
2019-04-27T17:02:17.402Z,9.90
2019-04-27T17:04:52.841Z,10.00
2019-04-27T17:07:21.609Z,12.20
2019-04-27T17:09:53.697Z,11.10
2019-04-27T17:12:32.295Z,16.03
2019-04-27T17:15:16.667Z,6.90
2019-04-27T17:18:10.703Z,10.60
2019-04-27T17:20:43.405Z,10.73
2019-04-27T17:23:22.542Z,5.47
2019-04-27T17:25:52.916Z,12.20
2019-04-27T17:28:24.969Z,11.20
2019-04-27T17:30:58.273Z,59.40
2019-04-27T17:33:38.124Z,8.27
2019-04-27T17:36:12.093Z,10.40
2019-04-27T17:38:47.340Z,14.10
2019-04-27T17:41:19.605Z,20.20
2019-04-27T17:43:51.878Z,43.80
2019-04-27T17:46:23.698Z,24.87
2019-04-27T17:48:55.592Z,54.03
2019-04-27T17:51:30.692Z,47.30
2019-04-27T17:54:02.941Z,36.70
2019-04-27T17:56:38.254Z,18.67
2019-04-27T17:59:16.480Z,15.30
2019-04-27T18:01:43.201Z,25.93
2019-04-27T18:04:15.063Z,18.27
2019-04-27T18:06:48.360Z,24.67
2019-04-27T18:09:21.215Z,17.57
2019-04-27T18:11:54.439Z,11.27
2019-04-27T18:14:32.616Z,10.00
2019-04-27T18:17:03.677Z,9.77
2019-04-27T18:19:55.590Z,11.87
2019-04-27T18:22:32.162Z,16.33
2019-04-27T18:25:06.817Z,14.60
2019-04-27T18:27:52.779Z,18.63
2019-04-27T18:30:43.995Z,34.43
2019-04-27T18:33:18.438Z,24.13
2019-04-27T18:35:51.113Z,21.97
2019-04-27T18:38:23.752Z,21.40
2019-04-27T18:40:55.850Z,22.17
2019-04-27T18:43:29.623Z,23.40
2019-04-27T18:46:03.571Z,28.20
2019-04-27T18:48:55.987Z,40.57
2019-04-27T18:51:48.420Z,32.00
2019-04-27T18:54:21.801Z,29.67
2019-04-27T18:57:01.897Z,176.37
2019-04-27T18:59:28.824Z,91.07
2019-04-27T19:02:01.270Z,111.77
2019-04-27T19:04:33.514Z,84.90
2019-04-27T19:07:05.437Z,75.43
2019-04-27T19:09:37.518Z,69.30
2019-04-27T19:12:09.552Z,46.90
2019-04-27T19:14:41.932Z,57.27
2019-04-27T19:17:13.842Z,37.17
2019-04-27T19:19:47.305Z,37.63
2019-04-27T19:22:19.779Z,30.47
2019-04-27T19:24:51.859Z,38.03
2019-04-27T19:27:33.002Z,20.43
2019-04-27T19:30:19.449Z,17.57
2019-04-27T19:32:51.684Z,18.13
2019-04-27T19:35:23.715Z,27.17
2019-04-27T19:37:55.622Z,24.13
2019-04-27T19:40:29.026Z,17.97
2019-04-27T19:43:01.022Z,24.07
2019-04-27T19:45:33.098Z,26.77
2019-04-27T19:48:05.026Z,23.10
2019-04-27T19:50:36.951Z,17.63
2019-04-27T19:53:09.725Z,21.57
2019-04-27T19:55:49.807Z,33.97
2019-04-27T19:58:21.811Z,81.63
2019-04-27T20:01:11.470Z,72.47
2019-04-27T20:03:38.713Z,71.27
2019-04-27T20:06:12.197Z,65.90
2019-04-27T20:08:49.012Z,54.43
2019-04-27T20:11:24.173Z,60.90
2019-04-27T20:13:58.029Z,64.70
2019-04-27T20:16:31.924Z,63.17
2019-04-27T20:19:04.104Z,73.03
2019-04-27T20:21:36.078Z,89.37
2019-04-27T20:24:08.685Z,81.60
2019-04-27T20:26:40.583Z,95.03
2019-04-27T20:29:14.363Z,96.90
2019-04-27T20:31:46.819Z,68.13
2019-04-27T20:34:21.155Z,65.27
2019-04-27T20:36:52.954Z,68.13
2019-04-27T20:39:24.912Z,60.47
2019-04-27T20:41:56.987Z,78.43
2019-04-27T20:44:31.073Z,62.90
2019-04-27T20:47:02.751Z,59.37
2019-04-27T20:49:34.683Z,76.47
2019-04-27T20:52:12.916Z,72.50
2019-04-27T20:54:44.932Z,62.37
2019-04-27T20:57:16.845Z,37.93
2019-04-27T20:59:50.501Z,33.10
2019-04-27T21:02:42.086Z,29.23
2019-04-27T21:05:26.234Z,28.03
2019-04-27T21:08:01.933Z,19.17
2019-04-27T21:10:34.906Z,18.50
2019-04-27T21:13:07.837Z,18.93
2019-04-27T21:15:41.722Z,16.23
2019-04-27T21:18:13.368Z,12.17
2019-04-27T21:20:45.249Z,12.23
2019-04-27T21:23:17.124Z,11.97
2019-04-27T21:25:51.223Z,10.57
2019-04-27T21:28:22.601Z,11.20
2019-04-27T21:30:54.423Z,10.00
2019-04-27T21:33:26.310Z,8.77
2019-04-27T21:35:58.205Z,10.53
2019-04-27T21:38:30.110Z,10.53
2019-04-27T21:41:01.995Z,20.63
2019-04-27T21:43:33.903Z,10.87
2019-04-27T21:46:05.825Z,11.70
2019-04-27T21:48:37.718Z,12.60
2019-04-27T21:51:11.308Z,13.47
2019-04-27T21:54:03.528Z,13.47
2019-04-27T21:56:35.410Z,11.53
2019-04-27T21:59:11.103Z,14.63
2019-04-27T22:01:44.538Z,13.73
2019-04-27T22:04:16.619Z,13.90
2019-04-27T22:06:48.498Z,14.40
2019-04-27T22:09:20.661Z,14.60
2019-04-27T22:11:53.105Z,13.80
2019-04-27T22:14:24.998Z,15.93
2019-04-27T22:16:56.885Z,16.10
2019-04-27T22:19:28.700Z,20.17
2019-04-27T22:22:02.246Z,18.40
2019-04-27T22:24:37.468Z,21.93
2019-04-27T22:27:09.467Z,22.83
2019-04-27T22:29:41.370Z,23.20
2019-04-27T22:32:13.279Z,23.47
2019-04-27T22:34:45.165Z,22.80
2019-04-27T22:37:17.140Z,22.70
2019-04-27T22:40:12.003Z,21.80
2019-04-27T22:43:02.871Z,23.13
2019-04-27T22:45:35.553Z,22.93
2019-04-27T22:48:07.461Z,25.37
2019-04-27T22:50:41.296Z,25.67
2019-04-27T22:53:12.911Z,27.60
2019-04-27T22:56:02.117Z,28.27
2019-04-27T22:58:35.308Z,36.97
2019-04-27T23:01:16.630Z,33.30
2019-04-27T23:03:48.875Z,33.43
2019-04-27T23:06:22.381Z,35.30
2019-04-27T23:08:54.333Z,35.07
2019-04-27T23:11:26.342Z,29.03
2019-04-27T23:13:58.216Z,27.83
2019-04-27T23:16:31.740Z,24.53
2019-04-27T23:19:03.570Z,23.87
2019-04-27T23:21:35.543Z,25.47
2019-04-27T23:24:07.431Z,25.50
2019-04-27T23:26:39.320Z,26.83
2019-04-27T23:29:15.722Z,25.43
2019-04-27T23:32:06.774Z,27.70
2019-04-27T23:34:38.595Z,29.80
2019-04-27T23:37:10.469Z,29.63
2019-04-27T23:39:42.578Z,31.53
2019-04-27T23:42:14.676Z,29.63
2019-04-27T23:44:46.564Z,29.93
2019-04-27T23:47:18.436Z,28.30
2019-04-27T23:49:50.923Z,29.90
2019-04-27T23:52:28.385Z,28.20
2019-04-27T23:55:02.236Z,28.17
2019-04-27T23:57:33.784Z,28.60
